Terminal Aerodrome Forecast
Issued by NWS

Home | Current Version | Previous Version | Text Only | Print | Product List | Glossary On
Versions: 1 2 3 4 5 6 7 8 9 10 11 12 13
549
FTUS45 KPSR 240520
TAFBLH
TAF
KBLH 240520Z 2406/2506 32007KT P6SM SKC
     FM241200 34012KT P6SM SKC
     FM241600 35013G19KT P6SM SKC
     FM250100 34006KT P6SM SKC=

USA.gov is the U.S. government's official web portal to all federal, state and local government web resources and services.